sensor_id;sensor_type;location;lat;lon;timestamp;temperature;humidity
20654;DHT22;21083;50.898;4.902;2022-09-03T00:01:24;20.90;99.90
20654;DHT22;21083;50.898;4.902;2022-09-03T00:03:57;20.90;99.90
20654;DHT22;21083;50.898;4.902;2022-09-03T00:06:26;20.80;99.90
20654;DHT22;21083;50.898;4.902;2022-09-03T00:09:00;20.90;99.90
20654;DHT22;21083;50.898;4.902;2022-09-03T00:11:32;20.80;99.90
20654;DHT22;21083;50.898;4.902;2022-09-03T00:14:05;20.70;99.90
20654;DHT22;21083;50.898;4.902;2022-09-03T00:16:39;20.80;99.90
20654;DHT22;21083;50.898;4.902;2022-09-03T00:19:08;20.80;99.90
20654;DHT22;21083;50.898;4.902;2022-09-03T00:21:38;20.90;99.90
20654;DHT22;21083;50.898;4.902;2022-09-03T00:24:11;21.00;99.90
20654;DHT22;21083;50.898;4.902;2022-09-03T00:26:42;21.00;99.90
20654;DHT22;21083;50.898;4.902;2022-09-03T00:29:14;21.00;99.90
20654;DHT22;21083;50.898;4.902;2022-09-03T00:31:44;21.00;99.90
20654;DHT22;21083;50.898;4.902;2022-09-03T00:34:15;21.00;99.90
20654;DHT22;21083;50.898;4.902;2022-09-03T00:36:45;21.10;99.90
20654;DHT22;21083;50.898;4.902;2022-09-03T00:39:15;21.00;99.90
20654;DHT22;21083;50.898;4.902;2022-09-03T00:41:51;21.00;99.90
20654;DHT22;21083;50.898;4.902;2022-09-03T00:47:25;20.90;99.90
20654;DHT22;21083;50.898;4.902;2022-09-03T00:50:02;20.80;99.90
20654;DHT22;21083;50.898;4.902;2022-09-03T00:52:49;20.70;99.90
20654;DHT22;21083;50.898;4.902;2022-09-03T00:55:33;20.70;99.90
20654;DHT22;21083;50.898;4.902;2022-09-03T00:58:14;20.70;99.90
20654;DHT22;21083;50.898;4.902;2022-09-03T01:00:45;20.70;99.90
20654;DHT22;21083;50.898;4.902;2022-09-03T01:03:19;20.70;99.90
20654;DHT22;21083;50.898;4.902;2022-09-03T01:06:00;20.70;99.90
20654;DHT22;21083;50.898;4.902;2022-09-03T01:08:51;20.70;99.90
20654;DHT22;21083;50.898;4.902;2022-09-03T01:11:31;20.70;99.90
20654;DHT22;21083;50.898;4.902;2022-09-03T01:14:11;20.70;99.90
20654;DHT22;21083;50.898;4.902;2022-09-03T01:16:46;20.70;99.90
20654;DHT22;21083;50.898;4.902;2022-09-03T01:19:33;20.70;99.90
20654;DHT22;21083;50.898;4.902;2022-09-03T01:22:21;20.70;99.90
20654;DHT22;21083;50.898;4.902;2022-09-03T01:25:14;20.70;99.90
20654;DHT22;21083;50.898;4.902;2022-09-03T01:27:59;20.70;99.90
20654;DHT22;21083;50.898;4.902;2022-09-03T01:30:27;20.70;99.90
20654;DHT22;21083;50.898;4.902;2022-09-03T01:33:01;20.60;99.90
20654;DHT22;21083;50.898;4.902;2022-09-03T01:35:36;20.60;99.90
20654;DHT22;21083;50.898;4.902;2022-09-03T01:38:12;20.60;99.90
20654;DHT22;21083;50.898;4.902;2022-09-03T01:40:48;20.60;99.90
20654;DHT22;21083;50.898;4.902;2022-09-03T01:43:34;20.60;99.90
20654;DHT22;21083;50.898;4.902;2022-09-03T01:46:09;20.50;99.90
20654;DHT22;21083;50.898;4.902;2022-09-03T01:48:44;20.60;99.90
20654;DHT22;21083;50.898;4.902;2022-09-03T01:51:20;20.50;99.90
20654;DHT22;21083;50.898;4.902;2022-09-03T01:54:11;20.50;99.90
20654;DHT22;21083;50.898;4.902;2022-09-03T01:56:55;20.50;99.90
20654;DHT22;21083;50.898;4.902;2022-09-03T01:59:32;20.50;99.90
20654;DHT22;21083;50.898;4.902;2022-09-03T02:02:03;20.50;99.90
20654;DHT22;21083;50.898;4.902;2022-09-03T02:04:32;20.50;99.90
20654;DHT22;21083;50.898;4.902;2022-09-03T02:07:00;20.50;99.90
20654;DHT22;21083;50.898;4.902;2022-09-03T02:09:27;20.40;99.90
20654;DHT22;21083;50.898;4.902;2022-09-03T02:11:59;20.50;99.90
20654;DHT22;21083;50.898;4.902;2022-09-03T02:14:30;20.50;99.90
20654;DHT22;21083;50.898;4.902;2022-09-03T02:16:59;20.50;99.90
20654;DHT22;21083;50.898;4.902;2022-09-03T02:19:27;20.50;99.90
20654;DHT22;21083;50.898;4.902;2022-09-03T02:21:56;20.50;99.90
20654;DHT22;21083;50.898;4.902;2022-09-03T02:24:24;20.50;99.90
20654;DHT22;21083;50.898;4.902;2022-09-03T02:26:52;20.40;99.90
20654;DHT22;21083;50.898;4.902;2022-09-03T02:29:19;20.40;99.90
20654;DHT22;21083;50.898;4.902;2022-09-03T02:31:48;20.30;99.90
20654;DHT22;21083;50.898;4.902;2022-09-03T02:34:15;20.30;99.90
20654;DHT22;21083;50.898;4.902;2022-09-03T02:36:44;20.30;99.90
20654;DHT22;21083;50.898;4.902;2022-09-03T02:39:11;20.20;99.90
20654;DHT22;21083;50.898;4.902;2022-09-03T02:41:38;20.30;99.90
20654;DHT22;21083;50.898;4.902;2022-09-03T02:44:09;20.20;99.90
20654;DHT22;21083;50.898;4.902;2022-09-03T02:46:39;20.20;99.90
20654;DHT22;21083;50.898;4.902;2022-09-03T02:49:08;20.20;99.90
20654;DHT22;21083;50.898;4.902;2022-09-03T02:51:37;20.20;99.90
20654;DHT22;21083;50.898;4.902;2022-09-03T02:54:04;20.20;99.90
20654;DHT22;21083;50.898;4.902;2022-09-03T02:56:31;20.10;99.90
20654;DHT22;21083;50.898;4.902;2022-09-03T02:58:58;20.10;99.90
20654;DHT22;21083;50.898;4.902;2022-09-03T03:01:26;20.10;99.90
20654;DHT22;21083;50.898;4.902;2022-09-03T03:03:53;20.10;99.90
20654;DHT22;21083;50.898;4.902;2022-09-03T03:06:21;20.00;99.90
20654;DHT22;21083;50.898;4.902;2022-09-03T03:08:48;20.00;99.90
20654;DHT22;21083;50.898;4.902;2022-09-03T03:11:16;20.00;99.90
20654;DHT22;21083;50.898;4.902;2022-09-03T03:13:44;19.90;99.90
20654;DHT22;21083;50.898;4.902;2022-09-03T03:16:12;19.90;99.90
20654;DHT22;21083;50.898;4.902;2022-09-03T03:18:39;19.90;99.90
20654;DHT22;21083;50.898;4.902;2022-09-03T03:21:07;19.80;99.90
20654;DHT22;21083;50.898;4.902;2022-09-03T03:23:36;19.80;99.90
20654;DHT22;21083;50.898;4.902;2022-09-03T03:26:05;19.80;99.90
20654;DHT22;21083;50.898;4.902;2022-09-03T03:28:34;19.70;99.90
20654;DHT22;21083;50.898;4.902;2022-09-03T03:31:05;19.70;99.90
20654;DHT22;21083;50.898;4.902;2022-09-03T03:33:32;19.70;99.90
20654;DHT22;21083;50.898;4.902;2022-09-03T03:36:03;19.80;99.90
20654;DHT22;21083;50.898;4.902;2022-09-03T03:38:30;19.80;99.90
20654;DHT22;21083;50.898;4.902;2022-09-03T03:40:58;19.90;99.90
20654;DHT22;21083;50.898;4.902;2022-09-03T03:43:25;19.80;99.90
20654;DHT22;21083;50.898;4.902;2022-09-03T03:45:56;19.80;99.90
20654;DHT22;21083;50.898;4.902;2022-09-03T03:48:23;19.90;99.90
20654;DHT22;21083;50.898;4.902;2022-09-03T03:50:50;19.90;99.90
20654;DHT22;21083;50.898;4.902;2022-09-03T03:53:17;19.80;99.90
20654;DHT22;21083;50.898;4.902;2022-09-03T03:55:53;19.90;99.90
20654;DHT22;21083;50.898;4.902;2022-09-03T03:58:21;19.90;99.90
20654;DHT22;21083;50.898;4.902;2022-09-03T04:00:48;20.00;99.90
20654;DHT22;21083;50.898;4.902;2022-09-03T04:03:15;19.90;99.90
20654;DHT22;21083;50.898;4.902;2022-09-03T04:05:42;19.80;99.90
20654;DHT22;21083;50.898;4.902;2022-09-03T04:08:09;19.90;99.90
20654;DHT22;21083;50.898;4.902;2022-09-03T04:10:37;19.90;99.90
20654;DHT22;21083;50.898;4.902;2022-09-03T04:13:04;19.90;99.90
20654;DHT22;21083;50.898;4.902;2022-09-03T04:15:32;19.90;99.90
20654;DHT22;21083;50.898;4.902;2022-09-03T04:17:59;19.90;99.90
20654;DHT22;21083;50.898;4.902;2022-09-03T04:20:26;19.90;99.90
20654;DHT22;21083;50.898;4.902;2022-09-03T04:22:53;19.90;99.90
20654;DHT22;21083;50.898;4.902;2022-09-03T04:25:20;19.90;99.90
20654;DHT22;21083;50.898;4.902;2022-09-03T04:27:47;19.90;99.90
20654;DHT22;21083;50.898;4.902;2022-09-03T04:30:14;19.90;99.90
20654;DHT22;21083;50.898;4.902;2022-09-03T04:32:42;19.90;99.90
20654;DHT22;21083;50.898;4.902;2022-09-03T04:35:22;19.90;99.90
20654;DHT22;21083;50.898;4.902;2022-09-03T04:37:50;19.90;99.90
20654;DHT22;21083;50.898;4.902;2022-09-03T04:40:19;19.90;99.90
20654;DHT22;21083;50.898;4.902;2022-09-03T04:42:46;19.90;99.90
20654;DHT22;21083;50.898;4.902;2022-09-03T04:45:13;19.90;99.90
20654;DHT22;21083;50.898;4.902;2022-09-03T04:47:48;19.90;99.90
20654;DHT22;21083;50.898;4.902;2022-09-03T04:50:20;19.90;99.90
20654;DHT22;21083;50.898;4.902;2022-09-03T04:52:48;19.90;99.90
20654;DHT22;21083;50.898;4.902;2022-09-03T04:55:15;19.80;99.90
20654;DHT22;21083;50.898;4.902;2022-09-03T04:57:41;19.90;99.90
20654;DHT22;21083;50.898;4.902;2022-09-03T05:00:10;19.90;99.90
20654;DHT22;21083;50.898;4.902;2022-09-03T05:02:37;19.80;99.90
20654;DHT22;21083;50.898;4.902;2022-09-03T05:05:06;19.80;99.90
20654;DHT22;21083;50.898;4.902;2022-09-03T05:07:33;19.80;99.90
20654;DHT22;21083;50.898;4.902;2022-09-03T05:10:04;19.70;99.90
20654;DHT22;21083;50.898;4.902;2022-09-03T05:12:32;19.80;99.90
20654;DHT22;21083;50.898;4.902;2022-09-03T05:14:58;19.80;99.90
20654;DHT22;21083;50.898;4.902;2022-09-03T05:17:25;19.70;99.90
20654;DHT22;21083;50.898;4.902;2022-09-03T05:19:52;19.70;99.90
20654;DHT22;21083;50.898;4.902;2022-09-03T05:22:21;19.70;99.90
20654;DHT22;21083;50.898;4.902;2022-09-03T05:24:48;19.70;99.90
20654;DHT22;21083;50.898;4.902;2022-09-03T05:27:15;19.70;99.90
20654;DHT22;21083;50.898;4.902;2022-09-03T05:29:42;19.70;99.90
20654;DHT22;21083;50.898;4.902;2022-09-03T05:32:09;19.70;99.90
20654;DHT22;21083;50.898;4.902;2022-09-03T05:34:37;19.70;99.90
20654;DHT22;21083;50.898;4.902;2022-09-03T05:37:04;19.70;99.90
20654;DHT22;21083;50.898;4.902;2022-09-03T05:39:32;19.80;99.90
20654;DHT22;21083;50.898;4.902;2022-09-03T05:41:59;19.80;99.90
20654;DHT22;21083;50.898;4.902;2022-09-03T05:44:26;19.70;99.90
20654;DHT22;21083;50.898;4.902;2022-09-03T05:46:54;19.80;99.90
20654;DHT22;21083;50.898;4.902;2022-09-03T05:49:21;19.80;99.90
20654;DHT22;21083;50.898;4.902;2022-09-03T05:51:48;19.80;99.90
20654;DHT22;21083;50.898;4.902;2022-09-03T05:54:14;19.80;99.90
20654;DHT22;21083;50.898;4.902;2022-09-03T05:56:43;19.80;99.90
20654;DHT22;21083;50.898;4.902;2022-09-03T05:59:09;19.80;99.90
20654;DHT22;21083;50.898;4.902;2022-09-03T06:01:39;19.70;99.90
20654;DHT22;21083;50.898;4.902;2022-09-03T06:04:08;19.70;99.90
20654;DHT22;21083;50.898;4.902;2022-09-03T06:06:36;19.80;99.90
20654;DHT22;21083;50.898;4.902;2022-09-03T06:09:05;19.80;99.90
20654;DHT22;21083;50.898;4.902;2022-09-03T06:11:34;19.80;99.90
20654;DHT22;21083;50.898;4.902;2022-09-03T06:14:04;19.70;99.90
20654;DHT22;21083;50.898;4.902;2022-09-03T06:16:34;19.70;99.90
20654;DHT22;21083;50.898;4.902;2022-09-03T06:19:02;19.80;99.90
20654;DHT22;21083;50.898;4.902;2022-09-03T06:21:30;19.80;99.90
20654;DHT22;21083;50.898;4.902;2022-09-03T06:23:57;19.80;99.90
20654;DHT22;21083;50.898;4.902;2022-09-03T06:26:24;19.90;99.90
20654;DHT22;21083;50.898;4.902;2022-09-03T06:28:52;19.90;99.90
20654;DHT22;21083;50.898;4.902;2022-09-03T06:31:22;19.90;99.90
20654;DHT22;21083;50.898;4.902;2022-09-03T06:33:50;20.10;99.90
20654;DHT22;21083;50.898;4.902;2022-09-03T06:36:18;20.00;99.90
20654;DHT22;21083;50.898;4.902;2022-09-03T06:38:46;20.10;99.90
20654;DHT22;21083;50.898;4.902;2022-09-03T06:41:14;20.10;99.90
20654;DHT22;21083;50.898;4.902;2022-09-03T06:43:43;20.20;99.90
20654;DHT22;21083;50.898;4.902;2022-09-03T06:46:12;20.30;99.90
20654;DHT22;21083;50.898;4.902;2022-09-03T06:48:41;20.40;99.90
20654;DHT22;21083;50.898;4.902;2022-09-03T06:51:09;20.60;99.90
20654;DHT22;21083;50.898;4.902;2022-09-03T06:53:38;20.70;99.90
20654;DHT22;21083;50.898;4.902;2022-09-03T06:56:07;20.80;99.90
20654;DHT22;21083;50.898;4.902;2022-09-03T06:58:36;21.00;99.90
20654;DHT22;21083;50.898;4.902;2022-09-03T07:01:04;21.00;99.90
20654;DHT22;21083;50.898;4.902;2022-09-03T07:03:32;21.10;99.90
20654;DHT22;21083;50.898;4.902;2022-09-03T07:06:01;21.30;99.90
20654;DHT22;21083;50.898;4.902;2022-09-03T07:08:30;21.40;99.90
20654;DHT22;21083;50.898;4.902;2022-09-03T07:10:57;21.60;99.90
20654;DHT22;21083;50.898;4.902;2022-09-03T07:13:24;21.60;99.90
20654;DHT22;21083;50.898;4.902;2022-09-03T07:15:58;21.80;99.90
20654;DHT22;21083;50.898;4.902;2022-09-03T07:18:25;21.80;99.90
20654;DHT22;21083;50.898;4.902;2022-09-03T07:20:57;21.70;99.90
20654;DHT22;21083;50.898;4.902;2022-09-03T07:23:25;21.70;99.90
20654;DHT22;21083;50.898;4.902;2022-09-03T07:25:54;21.70;99.90
20654;DHT22;21083;50.898;4.902;2022-09-03T07:28:21;21.70;99.90
20654;DHT22;21083;50.898;4.902;2022-09-03T07:30:49;21.80;99.90
20654;DHT22;21083;50.898;4.902;2022-09-03T07:33:16;21.90;99.90
20654;DHT22;21083;50.898;4.902;2022-09-03T07:35:43;21.80;99.90
20654;DHT22;21083;50.898;4.902;2022-09-03T07:38:10;21.80;99.90
20654;DHT22;21083;50.898;4.902;2022-09-03T07:40:39;21.90;99.90
20654;DHT22;21083;50.898;4.902;2022-09-03T07:43:06;21.90;99.90
20654;DHT22;21083;50.898;4.902;2022-09-03T07:45:33;21.90;99.90
20654;DHT22;21083;50.898;4.902;2022-09-03T07:48:00;21.90;99.90
20654;DHT22;21083;50.898;4.902;2022-09-03T07:50:27;22.00;99.90
20654;DHT22;21083;50.898;4.902;2022-09-03T07:52:57;22.00;99.90
20654;DHT22;21083;50.898;4.902;2022-09-03T07:55:24;22.00;99.90
20654;DHT22;21083;50.898;4.902;2022-09-03T07:57:56;22.10;99.90
20654;DHT22;21083;50.898;4.902;2022-09-03T08:00:24;22.20;99.90
20654;DHT22;21083;50.898;4.902;2022-09-03T08:02:51;22.30;99.90
20654;DHT22;21083;50.898;4.902;2022-09-03T08:05:18;22.30;99.90
20654;DHT22;21083;50.898;4.902;2022-09-03T08:07:46;22.40;99.90
20654;DHT22;21083;50.898;4.902;2022-09-03T08:10:13;22.50;99.90
20654;DHT22;21083;50.898;4.902;2022-09-03T08:12:41;22.50;99.90
20654;DHT22;21083;50.898;4.902;2022-09-03T08:15:09;22.60;99.90
20654;DHT22;21083;50.898;4.902;2022-09-03T08:17:36;22.80;99.90
20654;DHT22;21083;50.898;4.902;2022-09-03T08:20:03;22.80;99.90
20654;DHT22;21083;50.898;4.902;2022-09-03T08:22:30;22.90;99.90
20654;DHT22;21083;50.898;4.902;2022-09-03T08:24:58;22.90;99.90
20654;DHT22;21083;50.898;4.902;2022-09-03T08:27:26;22.80;99.90
20654;DHT22;21083;50.898;4.902;2022-09-03T08:29:54;22.90;99.90
20654;DHT22;21083;50.898;4.902;2022-09-03T08:32:22;23.00;99.90
20654;DHT22;21083;50.898;4.902;2022-09-03T08:34:49;23.00;99.90
20654;DHT22;21083;50.898;4.902;2022-09-03T08:37:17;23.20;99.90
20654;DHT22;21083;50.898;4.902;2022-09-03T08:39:44;23.10;99.90
20654;DHT22;21083;50.898;4.902;2022-09-03T08:42:40;23.10;99.90
20654;DHT22;21083;50.898;4.902;2022-09-03T08:45:14;23.20;99.90
20654;DHT22;21083;50.898;4.902;2022-09-03T08:47:47;23.20;99.90
20654;DHT22;21083;50.898;4.902;2022-09-03T08:50:22;23.30;99.90
20654;DHT22;21083;50.898;4.902;2022-09-03T08:52:52;23.50;99.90
20654;DHT22;21083;50.898;4.902;2022-09-03T08:55:25;23.60;99.90
20654;DHT22;21083;50.898;4.902;2022-09-03T08:57:59;23.70;99.90
20654;DHT22;21083;50.898;4.902;2022-09-03T09:00:38;23.70;99.90
20654;DHT22;21083;50.898;4.902;2022-09-03T09:03:25;23.80;99.90
20654;DHT22;21083;50.898;4.902;2022-09-03T09:06:03;23.60;99.90
20654;DHT22;21083;50.898;4.902;2022-09-03T09:08:36;23.80;99.90
20654;DHT22;21083;50.898;4.902;2022-09-03T09:11:13;23.90;99.90
20654;DHT22;21083;50.898;4.902;2022-09-03T09:13:45;24.00;99.90
20654;DHT22;21083;50.898;4.902;2022-09-03T09:16:19;24.10;99.90
20654;DHT22;21083;50.898;4.902;2022-09-03T09:19:02;24.20;99.90
20654;DHT22;21083;50.898;4.902;2022-09-03T09:21:38;24.20;99.90
20654;DHT22;21083;50.898;4.902;2022-09-03T09:24:16;24.40;99.90
20654;DHT22;21083;50.898;4.902;2022-09-03T09:26:48;24.40;99.90
20654;DHT22;21083;50.898;4.902;2022-09-03T09:29:15;24.50;99.90
20654;DHT22;21083;50.898;4.902;2022-09-03T09:31:42;24.40;99.90
20654;DHT22;21083;50.898;4.902;2022-09-03T09:34:11;24.30;99.90
20654;DHT22;21083;50.898;4.902;2022-09-03T09:36:44;24.40;99.90
20654;DHT22;21083;50.898;4.902;2022-09-03T09:39:13;24.50;99.90
20654;DHT22;21083;50.898;4.902;2022-09-03T09:41:41;24.30;99.90
20654;DHT22;21083;50.898;4.902;2022-09-03T09:44:18;24.50;99.90
20654;DHT22;21083;50.898;4.902;2022-09-03T09:46:45;24.70;99.90
20654;DHT22;21083;50.898;4.902;2022-09-03T09:49:30;24.80;99.90
20654;DHT22;21083;50.898;4.902;2022-09-03T09:52:06;25.00;99.90
20654;DHT22;21083;50.898;4.902;2022-09-03T09:54:38;25.40;99.90
20654;DHT22;21083;50.898;4.902;2022-09-03T09:57:06;25.80;99.90
20654;DHT22;21083;50.898;4.902;2022-09-03T09:59:34;25.90;99.90
20654;DHT22;21083;50.898;4.902;2022-09-03T10:02:13;25.80;99.90
20654;DHT22;21083;50.898;4.902;2022-09-03T10:04:42;25.90;99.90
20654;DHT22;21083;50.898;4.902;2022-09-03T10:07:31;26.10;99.90
20654;DHT22;21083;50.898;4.902;2022-09-03T10:10:02;26.20;99.90
20654;DHT22;21083;50.898;4.902;2022-09-03T10:12:37;26.50;99.90
20654;DHT22;21083;50.898;4.902;2022-09-03T10:15:22;26.80;99.90
20654;DHT22;21083;50.898;4.902;2022-09-03T10:18:05;27.00;99.90
20654;DHT22;21083;50.898;4.902;2022-09-03T10:20:39;27.00;99.90
20654;DHT22;21083;50.898;4.902;2022-09-03T10:23:14;27.40;99.90
20654;DHT22;21083;50.898;4.902;2022-09-03T10:25:56;27.50;99.90
20654;DHT22;21083;50.898;4.902;2022-09-03T10:28:29;27.60;99.90
20654;DHT22;21083;50.898;4.902;2022-09-03T10:34:15;27.70;99.90
20654;DHT22;21083;50.898;4.902;2022-09-03T10:36:50;27.50;99.90
20654;DHT22;21083;50.898;4.902;2022-09-03T10:39:27;27.50;99.90
20654;DHT22;21083;50.898;4.902;2022-09-03T10:42:08;27.70;99.90
20654;DHT22;21083;50.898;4.902;2022-09-03T10:44:51;27.60;99.90
20654;DHT22;21083;50.898;4.902;2022-09-03T10:47:41;27.50;99.90
20654;DHT22;21083;50.898;4.902;2022-09-03T10:50:16;27.70;99.90
20654;DHT22;21083;50.898;4.902;2022-09-03T10:53:06;27.30;99.90
20654;DHT22;21083;50.898;4.902;2022-09-03T10:55:44;27.30;99.90
20654;DHT22;21083;50.898;4.902;2022-09-03T11:01:09;27.50;99.90
20654;DHT22;21083;50.898;4.902;2022-09-03T11:03:42;27.70;99.90
20654;DHT22;21083;50.898;4.902;2022-09-03T11:06:14;28.10;99.90
20654;DHT22;21083;50.898;4.902;2022-09-03T11:08:50;27.80;99.90
20654;DHT22;21083;50.898;4.902;2022-09-03T11:11:21;28.10;99.90
20654;DHT22;21083;50.898;4.902;2022-09-03T11:13:54;28.70;99.90
20654;DHT22;21083;50.898;4.902;2022-09-03T11:16:27;29.30;99.90
20654;DHT22;21083;50.898;4.902;2022-09-03T11:19:01;29.60;99.90
20654;DHT22;21083;50.898;4.902;2022-09-03T11:21:30;29.90;99.90
20654;DHT22;21083;50.898;4.902;2022-09-03T11:24:08;29.90;99.90
20654;DHT22;21083;50.898;4.902;2022-09-03T11:26:39;30.20;99.90
20654;DHT22;21083;50.898;4.902;2022-09-03T11:29:11;29.90;99.90
20654;DHT22;21083;50.898;4.902;2022-09-03T11:31:51;30.20;99.90
20654;DHT22;21083;50.898;4.902;2022-09-03T11:34:28;30.60;99.90
20654;DHT22;21083;50.898;4.902;2022-09-03T11:37:13;30.70;99.90
20654;DHT22;21083;50.898;4.902;2022-09-03T11:39:44;30.80;99.90
20654;DHT22;21083;50.898;4.902;2022-09-03T11:42:25;31.00;99.90
20654;DHT22;21083;50.898;4.902;2022-09-03T11:44:59;31.20;99.90
20654;DHT22;21083;50.898;4.902;2022-09-03T11:47:37;31.50;99.90
20654;DHT22;21083;50.898;4.902;2022-09-03T11:50:07;31.40;99.90
20654;DHT22;21083;50.898;4.902;2022-09-03T11:52:41;31.40;99.90
20654;DHT22;21083;50.898;4.902;2022-09-03T11:55:09;31.60;99.90
20654;DHT22;21083;50.898;4.902;2022-09-03T11:57:40;31.80;99.90
20654;DHT22;21083;50.898;4.902;2022-09-03T12:00:10;32.10;99.90
20654;DHT22;21083;50.898;4.902;2022-09-03T12:02:42;31.40;99.90
20654;DHT22;21083;50.898;4.902;2022-09-03T12:05:23;31.30;99.90
20654;DHT22;21083;50.898;4.902;2022-09-03T12:11:07;30.80;99.90
20654;DHT22;21083;50.898;4.902;2022-09-03T12:13:49;31.10;99.90
20654;DHT22;21083;50.898;4.902;2022-09-03T12:16:28;31.50;99.90
20654;DHT22;21083;50.898;4.902;2022-09-03T12:19:02;31.70;99.90
20654;DHT22;21083;50.898;4.902;2022-09-03T12:21:36;31.80;99.90
20654;DHT22;21083;50.898;4.902;2022-09-03T12:24:03;32.40;99.90
20654;DHT22;21083;50.898;4.902;2022-09-03T12:26:38;32.80;99.90
20654;DHT22;21083;50.898;4.902;2022-09-03T12:29:05;33.40;99.90
20654;DHT22;21083;50.898;4.902;2022-09-03T12:31:43;33.40;99.90
20654;DHT22;21083;50.898;4.902;2022-09-03T12:34:13;33.30;99.90
20654;DHT22;21083;50.898;4.902;2022-09-03T12:36:42;32.90;99.90
20654;DHT22;21083;50.898;4.902;2022-09-03T12:39:09;32.40;99.90
20654;DHT22;21083;50.898;4.902;2022-09-03T12:41:38;32.10;99.90
20654;DHT22;21083;50.898;4.902;2022-09-03T12:44:05;31.80;99.90
20654;DHT22;21083;50.898;4.902;2022-09-03T12:46:32;31.60;99.90
20654;DHT22;21083;50.898;4.902;2022-09-03T12:49:00;31.60;99.90
20654;DHT22;21083;50.898;4.902;2022-09-03T12:51:35;31.80;99.90
20654;DHT22;21083;50.898;4.902;2022-09-03T12:54:04;32.20;99.90
20654;DHT22;21083;50.898;4.902;2022-09-03T12:56:35;32.30;99.90
20654;DHT22;21083;50.898;4.902;2022-09-03T12:59:06;32.30;99.90
20654;DHT22;21083;50.898;4.902;2022-09-03T13:01:41;32.30;99.90
20654;DHT22;21083;50.898;4.902;2022-09-03T13:04:13;32.30;99.90
20654;DHT22;21083;50.898;4.902;2022-09-03T13:06:47;32.70;99.90
20654;DHT22;21083;50.898;4.902;2022-09-03T13:09:20;33.10;99.90
20654;DHT22;21083;50.898;4.902;2022-09-03T13:11:48;33.80;99.90
20654;DHT22;21083;50.898;4.902;2022-09-03T13:14:18;33.60;99.90
20654;DHT22;21083;50.898;4.902;2022-09-03T13:17:06;33.90;99.90
20654;DHT22;21083;50.898;4.902;2022-09-03T13:19:50;34.00;99.90
20654;DHT22;21083;50.898;4.902;2022-09-03T13:22:32;34.10;99.90
20654;DHT22;21083;50.898;4.902;2022-09-03T13:25:12;34.30;99.90
20654;DHT22;21083;50.898;4.902;2022-09-03T13:27:45;34.00;99.90
20654;DHT22;21083;50.898;4.902;2022-09-03T13:30:21;33.80;99.90
20654;DHT22;21083;50.898;4.902;2022-09-03T13:32:56;33.50;99.90
20654;DHT22;21083;50.898;4.902;2022-09-03T13:35:29;33.40;99.90
20654;DHT22;21083;50.898;4.902;2022-09-03T13:38:08;33.00;99.90
20654;DHT22;21083;50.898;4.902;2022-09-03T13:40:44;32.80;99.90
20654;DHT22;21083;50.898;4.902;2022-09-03T13:43:24;32.60;99.90
20654;DHT22;21083;50.898;4.902;2022-09-03T13:45:57;32.40;99.90
20654;DHT22;21083;50.898;4.902;2022-09-03T13:48:29;32.10;99.90
20654;DHT22;21083;50.898;4.902;2022-09-03T13:51:20;32.10;99.90
20654;DHT22;21083;50.898;4.902;2022-09-03T13:53:56;31.60;99.90
20654;DHT22;21083;50.898;4.902;2022-09-03T13:56:34;31.70;99.90
20654;DHT22;21083;50.898;4.902;2022-09-03T13:59:05;31.90;99.90
20654;DHT22;21083;50.898;4.902;2022-09-03T14:01:44;31.80;99.90
20654;DHT22;21083;50.898;4.902;2022-09-03T14:04:21;31.70;99.90
20654;DHT22;21083;50.898;4.902;2022-09-03T14:06:57;32.00;99.90
20654;DHT22;21083;50.898;4.902;2022-09-03T14:09:29;32.30;99.90
20654;DHT22;21083;50.898;4.902;2022-09-03T14:12:04;32.40;99.90
20654;DHT22;21083;50.898;4.902;2022-09-03T14:14:38;32.40;99.90
20654;DHT22;21083;50.898;4.902;2022-09-03T14:17:14;32.60;99.90
20654;DHT22;21083;50.898;4.902;2022-09-03T14:19:47;32.80;99.90
20654;DHT22;21083;50.898;4.902;2022-09-03T14:22:20;32.80;99.90
20654;DHT22;21083;50.898;4.902;2022-09-03T14:24:51;32.30;99.90
20654;DHT22;21083;50.898;4.902;2022-09-03T14:27:23;32.00;99.90
20654;DHT22;21083;50.898;4.902;2022-09-03T14:29:53;31.70;99.90
20654;DHT22;21083;50.898;4.902;2022-09-03T14:32:30;31.60;99.90
20654;DHT22;21083;50.898;4.902;2022-09-03T14:35:18;31.50;99.90
20654;DHT22;21083;50.898;4.902;2022-09-03T14:38:04;31.40;99.90
20654;DHT22;21083;50.898;4.902;2022-09-03T14:40:41;31.20;99.90
20654;DHT22;21083;50.898;4.902;2022-09-03T14:43:27;30.80;99.90
20654;DHT22;21083;50.898;4.902;2022-09-03T14:46:11;30.50;99.90
20654;DHT22;21083;50.898;4.902;2022-09-03T14:48:53;30.00;99.90
20654;DHT22;21083;50.898;4.902;2022-09-03T14:51:33;29.80;99.90
20654;DHT22;21083;50.898;4.902;2022-09-03T14:54:24;29.90;99.90
20654;DHT22;21083;50.898;4.902;2022-09-03T14:57:00;30.00;99.90
20654;DHT22;21083;50.898;4.902;2022-09-03T14:59:40;30.70;99.90
20654;DHT22;21083;50.898;4.902;2022-09-03T15:02:36;31.40;99.90
20654;DHT22;21083;50.898;4.902;2022-09-03T15:05:13;32.10;99.90
20654;DHT22;21083;50.898;4.902;2022-09-03T15:07:44;32.90;99.90
20654;DHT22;21083;50.898;4.902;2022-09-03T15:10:20;33.30;99.90
20654;DHT22;21083;50.898;4.902;2022-09-03T15:12:53;33.60;99.90
20654;DHT22;21083;50.898;4.902;2022-09-03T15:15:25;34.00;99.90
20654;DHT22;21083;50.898;4.902;2022-09-03T15:18:02;34.50;99.90
20654;DHT22;21083;50.898;4.902;2022-09-03T15:20:47;34.90;99.90
20654;DHT22;21083;50.898;4.902;2022-09-03T15:23:47;35.20;99.90
20654;DHT22;21083;50.898;4.902;2022-09-03T15:26:46;35.20;99.90
20654;DHT22;21083;50.898;4.902;2022-09-03T15:29:26;34.60;99.90
20654;DHT22;21083;50.898;4.902;2022-09-03T15:32:03;34.20;99.90
20654;DHT22;21083;50.898;4.902;2022-09-03T15:34:52;33.60;99.90
20654;DHT22;21083;50.898;4.902;2022-09-03T15:37:27;33.10;99.90
20654;DHT22;21083;50.898;4.902;2022-09-03T15:40:02;32.80;99.90
20654;DHT22;21083;50.898;4.902;2022-09-03T15:42:31;32.50;99.90
20654;DHT22;21083;50.898;4.902;2022-09-03T15:45:03;32.30;99.90
20654;DHT22;21083;50.898;4.902;2022-09-03T15:47:37;32.20;99.90
20654;DHT22;21083;50.898;4.902;2022-09-03T15:50:15;32.00;99.90
20654;DHT22;21083;50.898;4.902;2022-09-03T15:52:53;31.80;99.90
20654;DHT22;21083;50.898;4.902;2022-09-03T15:55:30;31.60;99.90
20654;DHT22;21083;50.898;4.902;2022-09-03T15:58:00;31.60;99.90
20654;DHT22;21083;50.898;4.902;2022-09-03T16:00:40;31.40;99.90
20654;DHT22;21083;50.898;4.902;2022-09-03T16:03:17;31.30;99.90
20654;DHT22;21083;50.898;4.902;2022-09-03T16:05:47;31.00;99.90
20654;DHT22;21083;50.898;4.902;2022-09-03T16:08:21;30.90;99.90
20654;DHT22;21083;50.898;4.902;2022-09-03T16:10:56;30.70;99.90
20654;DHT22;21083;50.898;4.902;2022-09-03T16:13:44;30.50;99.90
20654;DHT22;21083;50.898;4.902;2022-09-03T16:16:16;30.40;99.90